createdAt,value
2018-08-09T00:00:20.680Z,1.82
2018-08-09T00:02:49.027Z,2.70
2018-08-09T00:05:17.545Z,2.37
2018-08-09T00:07:46.239Z,1.62
2018-08-09T00:10:14.824Z,2.12
2018-08-09T00:12:43.761Z,1.70
2018-08-09T00:15:12.364Z,2.00
2018-08-09T00:17:41.294Z,1.85
2018-08-09T00:20:09.962Z,2.27
2018-08-09T00:22:38.440Z,2.10
2018-08-09T00:25:07.261Z,2.45
2018-08-09T00:27:35.939Z,2.02
2018-08-09T00:30:05.424Z,2.22
2018-08-09T00:32:33.969Z,2.05
2018-08-09T00:35:02.680Z,1.90
2018-08-09T00:37:31.139Z,2.17
2018-08-09T00:39:59.737Z,2.40
2018-08-09T00:42:28.173Z,1.92
2018-08-09T00:44:56.809Z,1.62
2018-08-09T00:47:25.328Z,1.50
2018-08-09T00:49:55.295Z,1.72
2018-08-09T00:52:23.689Z,1.75
2018-08-09T00:54:52.112Z,2.40
2018-08-09T00:57:20.660Z,1.90
2018-08-09T00:59:49.203Z,2.15
2018-08-09T01:02:17.808Z,2.33
2018-08-09T01:04:46.522Z,2.05
2018-08-09T01:07:15.226Z,1.80
2018-08-09T01:09:43.847Z,2.30
2018-08-09T01:12:12.436Z,2.37
2018-08-09T01:14:41.005Z,2.05
2018-08-09T01:17:09.808Z,2.35
2018-08-09T01:19:38.300Z,2.50
2018-08-09T01:22:06.967Z,2.35
2018-08-09T01:24:35.488Z,3.10
2018-08-09T01:27:03.874Z,2.60
2018-08-09T01:29:32.165Z,2.60
2018-08-09T01:32:00.777Z,2.55
2018-08-09T01:34:29.172Z,2.45
2018-08-09T01:36:57.574Z,3.20
2018-08-09T01:39:26.053Z,2.40
2018-08-09T01:42:06.309Z,2.72
2018-08-09T01:44:34.775Z,2.62
2018-08-09T01:47:03.347Z,2.62
2018-08-09T01:49:31.936Z,2.42
2018-08-09T01:52:00.381Z,2.60
2018-08-09T01:54:29.132Z,2.80
2018-08-09T01:56:57.580Z,2.55
2018-08-09T01:59:26.043Z,2.77
2018-08-09T02:01:54.432Z,3.20
2018-08-09T02:04:22.792Z,2.40
2018-08-09T02:06:51.260Z,2.50
2018-08-09T02:09:25.133Z,2.62
2018-08-09T02:11:53.611Z,3.20
2018-08-09T02:14:22.102Z,3.25
2018-08-09T02:16:50.483Z,3.50
2018-08-09T02:19:19.196Z,2.92
2018-08-09T02:21:47.677Z,2.70
2018-08-09T02:24:16.189Z,2.90
2018-08-09T02:26:44.728Z,3.00
2018-08-09T02:29:13.248Z,2.72
2018-08-09T02:31:41.859Z,3.80
2018-08-09T02:34:10.413Z,2.50
2018-08-09T02:36:38.913Z,3.30
2018-08-09T02:39:08.771Z,3.67
2018-08-09T02:41:37.177Z,3.52
2018-08-09T02:44:05.729Z,3.40
2018-08-09T02:46:34.150Z,3.50
2018-08-09T02:49:02.644Z,3.30
2018-08-09T02:51:31.120Z,3.42
2018-08-09T02:53:59.645Z,3.10
2018-08-09T02:56:28.156Z,3.08
2018-08-09T02:58:56.805Z,2.65
2018-08-09T03:01:25.289Z,2.98
2018-08-09T03:03:53.739Z,3.22
2018-08-09T03:06:22.184Z,3.50
2018-08-09T03:08:50.578Z,3.02
2018-08-09T03:11:19.308Z,3.30
2018-08-09T03:13:47.746Z,3.87
2018-08-09T03:16:16.207Z,2.98
2018-08-09T03:18:44.680Z,3.58
2018-08-09T03:21:13.246Z,3.02
2018-08-09T03:23:41.803Z,3.47
2018-08-09T03:26:10.281Z,3.27
2018-08-09T03:28:38.659Z,3.17
2018-08-09T03:31:07.458Z,3.67
2018-08-09T03:33:35.871Z,3.22
2018-08-09T03:36:04.305Z,3.50
2018-08-09T03:38:32.714Z,3.22
2018-08-09T03:41:01.128Z,3.12
2018-08-09T03:43:29.589Z,2.90
2018-08-09T03:45:58.113Z,3.20
2018-08-09T03:48:26.523Z,3.02
2018-08-09T03:50:54.963Z,3.10
2018-08-09T03:53:23.332Z,3.35
2018-08-09T03:55:51.796Z,3.83
2018-08-09T03:58:20.184Z,3.20
2018-08-09T04:00:48.627Z,3.37
2018-08-09T04:03:17.079Z,3.17
2018-08-09T04:05:45.550Z,3.33
2018-08-09T04:08:14.011Z,3.65
2018-08-09T04:10:42.384Z,3.52
2018-08-09T04:13:10.884Z,3.25
2018-08-09T04:15:39.362Z,3.50
2018-08-09T04:18:07.868Z,4.00
2018-08-09T04:20:36.332Z,3.22
2018-08-09T04:23:04.716Z,3.60
2018-08-09T04:25:33.131Z,3.67
2018-08-09T04:28:01.656Z,3.95
2018-08-09T04:30:30.165Z,3.72
2018-08-09T04:32:58.539Z,3.70
2018-08-09T04:35:27.253Z,3.62
2018-08-09T04:37:55.744Z,3.47
2018-08-09T04:40:24.524Z,3.65
2018-08-09T04:42:53.071Z,3.77
2018-08-09T04:45:21.792Z,4.08
2018-08-09T04:47:50.515Z,4.80
2018-08-09T04:50:18.937Z,5.08
2018-08-09T04:52:47.688Z,4.60
2018-08-09T04:55:16.185Z,5.20
2018-08-09T04:57:44.555Z,5.22
2018-08-09T05:00:13.108Z,5.62
2018-08-09T05:02:41.604Z,4.78
2018-08-09T05:05:10.084Z,5.85
2018-08-09T05:10:13.887Z,5.57
2018-08-09T05:12:43.280Z,4.97
2018-08-09T05:15:13.626Z,5.78
2018-08-09T05:17:42.384Z,6.00
2018-08-09T05:20:11.093Z,5.83
2018-08-09T05:22:40.028Z,6.25
2018-08-09T05:25:08.967Z,6.45
2018-08-09T05:27:38.913Z,6.28
2018-08-09T05:30:08.057Z,6.33
2018-08-09T05:32:38.100Z,6.55
2018-08-09T05:35:08.140Z,6.30
2018-08-09T05:37:37.427Z,5.47
2018-08-09T05:40:06.003Z,5.92
2018-08-09T05:42:34.780Z,5.53
2018-08-09T05:45:03.831Z,6.60
2018-08-09T05:47:32.393Z,6.67
2018-08-09T05:50:00.946Z,6.28
2018-08-09T05:52:29.357Z,5.72
2018-08-09T05:54:58.166Z,6.80
2018-08-09T05:57:26.713Z,6.17
2018-08-09T05:59:55.123Z,6.58
2018-08-09T06:02:23.660Z,5.80
2018-08-09T06:04:52.225Z,6.12
2018-08-09T06:07:20.863Z,6.12
2018-08-09T06:09:49.616Z,6.12
2018-08-09T06:12:18.062Z,6.75
2018-08-09T06:14:46.608Z,6.62
2018-08-09T06:17:14.976Z,6.53
2018-08-09T06:19:43.404Z,6.80
2018-08-09T06:22:11.942Z,6.90
2018-08-09T06:24:40.715Z,6.78
2018-08-09T06:27:09.163Z,7.10
2018-08-09T06:29:37.675Z,7.22
2018-08-09T06:32:06.613Z,7.33
2018-08-09T06:34:34.965Z,6.15
2018-08-09T06:37:03.384Z,6.33
2018-08-09T06:39:31.937Z,6.85
2018-08-09T06:42:03.462Z,7.35
2018-08-09T06:44:32.133Z,6.30
2018-08-09T06:47:00.587Z,6.78
2018-08-09T06:49:29.033Z,6.95
2018-08-09T06:51:57.536Z,7.17
2018-08-09T06:54:25.964Z,7.12
2018-08-09T06:56:54.589Z,8.38
2018-08-09T06:59:23.108Z,7.87
2018-08-09T07:01:51.892Z,8.08
2018-08-09T07:04:20.297Z,8.43
2018-08-09T07:06:48.653Z,7.90
2018-08-09T07:09:17.164Z,7.87
2018-08-09T07:11:45.780Z,7.65
2018-08-09T07:14:14.423Z,8.30
2018-08-09T07:16:42.834Z,8.55
2018-08-09T07:19:11.232Z,6.87
2018-08-09T07:21:39.576Z,7.10
2018-08-09T07:24:08.801Z,7.95
2018-08-09T07:26:37.247Z,7.12
2018-08-09T07:29:05.708Z,7.70
2018-08-09T07:31:34.060Z,7.72
2018-08-09T07:34:02.388Z,7.10
2018-08-09T07:36:30.924Z,8.43
2018-08-09T07:38:59.232Z,7.22
2018-08-09T07:41:27.709Z,7.08
2018-08-09T07:43:56.147Z,7.08
2018-08-09T07:46:24.544Z,7.12
2018-08-09T07:48:53.035Z,8.10
2018-08-09T07:51:21.780Z,8.80
2018-08-09T07:53:50.156Z,7.90
2018-08-09T07:56:18.511Z,7.28
2018-08-09T07:58:46.851Z,8.68
2018-08-09T08:01:15.240Z,7.17
2018-08-09T08:03:43.568Z,8.38
2018-08-09T08:06:12.051Z,9.15
2018-08-09T08:08:40.321Z,8.18
2018-08-09T08:11:08.717Z,7.80
2018-08-09T08:13:37.040Z,8.00
2018-08-09T08:16:05.559Z,7.62
2018-08-09T08:18:33.880Z,8.53
2018-08-09T08:21:02.183Z,8.00
2018-08-09T08:23:30.497Z,8.55
2018-08-09T08:25:58.798Z,7.78
2018-08-09T08:28:33.897Z,8.48
2018-08-09T08:31:02.268Z,6.97
2018-08-09T08:33:30.557Z,7.92
2018-08-09T08:35:58.952Z,7.92
2018-08-09T08:38:27.407Z,8.30
2018-08-09T08:40:55.756Z,9.00
2018-08-09T08:43:24.377Z,8.33
2018-08-09T08:45:52.663Z,8.20
2018-08-09T08:48:21.081Z,7.62
2018-08-09T08:50:49.360Z,7.62
2018-08-09T08:53:20.032Z,7.08
2018-08-09T08:55:48.327Z,7.75
2018-08-09T08:58:16.892Z,6.37
2018-08-09T09:00:45.496Z,6.33
2018-08-09T09:03:13.763Z,8.28
2018-08-09T09:05:42.064Z,7.97
2018-08-09T09:08:10.427Z,8.05
2018-08-09T09:10:38.742Z,6.87
2018-08-09T09:13:07.332Z,8.25
2018-08-09T09:15:35.664Z,7.45
2018-08-09T09:18:04.273Z,6.95
2018-08-09T09:20:32.536Z,5.85
2018-08-09T09:23:00.953Z,7.53
2018-08-09T09:25:29.282Z,6.87
2018-08-09T09:27:57.592Z,6.78
2018-08-09T09:30:26.028Z,6.83
2018-08-09T09:32:54.352Z,6.20
2018-08-09T09:35:22.759Z,5.78
2018-08-09T09:37:51.072Z,5.70
2018-08-09T09:40:19.352Z,5.45
2018-08-09T09:42:47.690Z,5.33
2018-08-09T09:45:16.020Z,4.67
2018-08-09T09:47:44.408Z,5.15
2018-08-09T09:50:12.801Z,4.97
2018-08-09T09:52:41.307Z,4.33
2018-08-09T09:55:09.588Z,4.47
2018-08-09T09:57:38.308Z,4.35
2018-08-09T10:00:12.672Z,4.50
2018-08-09T10:02:41.039Z,4.90
2018-08-09T10:05:09.420Z,4.75
2018-08-09T10:07:37.941Z,5.20
2018-08-09T10:10:06.519Z,4.70
2018-08-09T10:12:35.022Z,3.92
2018-08-09T10:15:03.312Z,5.00
2018-08-09T10:17:31.573Z,5.67
2018-08-09T10:19:59.918Z,5.42
2018-08-09T10:22:28.280Z,5.58
2018-08-09T10:24:56.568Z,5.25
2018-08-09T10:27:25.048Z,4.70
2018-08-09T10:29:53.394Z,4.42
2018-08-09T10:32:21.815Z,4.65
2018-08-09T10:34:50.196Z,4.47
2018-08-09T10:37:18.569Z,4.97
2018-08-09T10:39:46.905Z,4.58
2018-08-09T10:42:15.314Z,4.37
2018-08-09T10:44:43.654Z,3.90
2018-08-09T10:47:12.096Z,4.25
2018-08-09T10:49:40.436Z,4.67
2018-08-09T10:52:11.920Z,3.58
2018-08-09T10:54:40.650Z,4.33
2018-08-09T10:57:08.945Z,4.40
2018-08-09T10:59:37.776Z,4.10
2018-08-09T11:02:06.300Z,4.40
2018-08-09T11:04:34.585Z,4.55
2018-08-09T11:07:02.898Z,4.25
2018-08-09T11:09:31.265Z,4.55
2018-08-09T11:11:59.730Z,4.62
2018-08-09T11:14:28.205Z,4.75
2018-08-09T11:16:56.574Z,5.00
2018-08-09T11:19:25.212Z,4.30
2018-08-09T11:21:53.586Z,4.70
2018-08-09T11:24:21.940Z,5.33
2018-08-09T11:26:50.462Z,5.55
2018-08-09T11:29:19.540Z,5.97
2018-08-09T11:31:48.549Z,5.83
2018-08-09T11:34:18.755Z,5.92
2018-08-09T11:36:47.188Z,6.10
2018-08-09T11:39:15.517Z,6.83
2018-08-09T11:41:44.828Z,6.60
2018-08-09T11:44:14.236Z,6.78
2018-08-09T11:46:42.829Z,6.67
2018-08-09T11:49:13.996Z,7.20
2018-08-09T11:51:46.614Z,7.08
2018-08-09T11:54:15.123Z,7.83
2018-08-09T11:56:43.723Z,7.03
2018-08-09T11:59:17.139Z,6.15
2018-08-09T12:01:55.922Z,7.08
2018-08-09T12:04:24.726Z,7.85
2018-08-09T12:07:01.984Z,7.75
2018-08-09T12:09:37.457Z,7.35
2018-08-09T12:12:12.453Z,6.92
2018-08-09T12:14:42.674Z,9.18
2018-08-09T12:17:11.391Z,7.35
2018-08-09T12:19:39.759Z,7.75
2018-08-09T12:22:08.180Z,7.50
2018-08-09T12:24:37.946Z,7.50
2018-08-09T12:27:06.361Z,8.55
2018-08-09T12:29:34.832Z,8.75
2018-08-09T12:32:03.180Z,9.05
2018-08-09T12:34:31.767Z,9.35
2018-08-09T12:37:00.264Z,8.50
2018-08-09T12:39:28.771Z,9.75
2018-08-09T12:41:57.412Z,9.38
2018-08-09T12:44:25.786Z,8.50
2018-08-09T12:46:54.419Z,9.15
2018-08-09T12:49:22.892Z,8.93
2018-08-09T12:51:51.382Z,9.98
2018-08-09T12:54:19.878Z,9.88
2018-08-09T12:56:48.369Z,9.78
2018-08-09T12:59:16.814Z,9.15
2018-08-09T13:01:45.243Z,10.40
2018-08-09T13:04:13.782Z,10.00
2018-08-09T13:06:42.705Z,8.30
2018-08-09T13:09:12.511Z,8.75
2018-08-09T13:11:40.969Z,9.75
2018-08-09T13:14:09.845Z,10.55
2018-08-09T13:16:38.288Z,10.23
2018-08-09T13:19:07.228Z,10.53
2018-08-09T13:21:35.962Z,10.20
2018-08-09T13:24:04.578Z,10.10
2018-08-09T13:26:33.008Z,9.30
2018-08-09T13:29:01.518Z,10.35
2018-08-09T13:31:30.344Z,10.03
2018-08-09T13:33:58.958Z,10.03
2018-08-09T13:36:27.599Z,9.93
2018-08-09T13:38:56.686Z,10.48
2018-08-09T13:41:25.762Z,10.60
2018-08-09T13:43:55.568Z,10.68
2018-08-09T13:46:24.444Z,10.32
2018-08-09T13:48:52.989Z,9.58
2018-08-09T13:51:21.568Z,9.80
2018-08-09T13:53:49.969Z,9.98
2018-08-09T13:56:18.465Z,8.80
2018-08-09T13:58:46.952Z,10.20
2018-08-09T14:01:15.496Z,11.05
2018-08-09T14:03:44.249Z,10.98
2018-08-09T14:06:12.832Z,9.85
2018-08-09T14:08:41.549Z,9.95
2018-08-09T14:11:10.296Z,9.00
2018-08-09T14:13:39.965Z,11.20
2018-08-09T14:16:09.145Z,11.05
2018-08-09T14:18:38.067Z,13.20
2018-08-09T14:21:06.741Z,12.63
2018-08-09T14:23:35.591Z,12.85
2018-08-09T14:26:04.490Z,13.75
2018-08-09T14:28:33.249Z,13.53
2018-08-09T14:31:01.672Z,12.73
2018-08-09T14:33:30.421Z,10.25
2018-08-09T14:35:58.872Z,12.70
2018-08-09T14:38:27.480Z,14.10
2018-08-09T14:40:55.869Z,14.40
2018-08-09T14:43:24.493Z,13.48
2018-08-09T14:45:53.175Z,13.38
2018-08-09T14:48:21.639Z,14.05
2018-08-09T14:50:50.574Z,14.90
2018-08-09T14:53:19.175Z,14.90
2018-08-09T14:55:48.384Z,16.50
2018-08-09T14:58:16.914Z,16.87
2018-08-09T15:00:45.233Z,16.65
2018-08-09T15:03:13.729Z,13.90
2018-08-09T15:05:42.615Z,17.00
2018-08-09T15:08:11.257Z,13.62
2018-08-09T15:10:39.829Z,14.78
2018-08-09T15:13:08.775Z,13.88
2018-08-09T15:15:37.575Z,15.95
2018-08-09T15:18:06.411Z,15.53
2018-08-09T15:20:34.891Z,14.28
2018-08-09T15:23:03.296Z,16.62
2018-08-09T15:25:48.523Z,17.57
2018-08-09T15:28:17.557Z,16.67
2018-08-09T15:30:46.137Z,14.55
2018-08-09T15:33:21.696Z,15.93
2018-08-09T15:35:50.645Z,14.90
2018-08-09T15:38:19.387Z,16.75
2018-08-09T15:40:47.798Z,17.32
2018-08-09T15:43:16.988Z,15.25
2018-08-09T15:45:45.618Z,17.30
2018-08-09T15:48:14.499Z,16.40
2018-08-09T15:50:43.114Z,12.98
2018-08-09T15:53:11.743Z,15.40
2018-08-09T15:55:40.597Z,17.70
2018-08-09T15:58:09.249Z,14.28
2018-08-09T16:00:37.765Z,12.55
2018-08-09T16:03:06.796Z,13.70
2018-08-09T16:05:35.296Z,14.83
2018-08-09T16:08:04.192Z,13.48
2018-08-09T16:10:32.753Z,13.32
2018-08-09T16:13:01.418Z,14.03
2018-08-09T16:15:29.865Z,13.85
2018-08-09T16:17:58.421Z,15.95
2018-08-09T16:20:26.945Z,15.23
2018-08-09T16:22:55.445Z,14.80
2018-08-09T16:25:23.928Z,14.00
2018-08-09T16:27:53.540Z,13.35
2018-08-09T16:30:25.883Z,11.97
2018-08-09T16:32:54.708Z,13.13
2018-08-09T16:35:24.017Z,12.45
2018-08-09T16:37:52.497Z,15.90
2018-08-09T16:40:22.483Z,14.38
2018-08-09T16:42:51.012Z,14.98
2018-08-09T16:45:20.661Z,14.93
2018-08-09T16:47:49.576Z,12.63
2018-08-09T16:50:20.063Z,14.58
2018-08-09T16:52:49.338Z,16.25
2018-08-09T16:55:19.050Z,15.13
2018-08-09T16:57:47.599Z,15.32
2018-08-09T17:00:18.444Z,14.00
2018-08-09T17:02:46.936Z,15.98
2018-08-09T17:05:18.177Z,15.58
2018-08-09T17:07:46.817Z,16.87
2018-08-09T17:10:19.664Z,16.57
2018-08-09T17:12:48.144Z,19.00
2018-08-09T17:15:20.196Z,20.57
2018-08-09T17:17:48.587Z,21.40
2018-08-09T17:20:20.197Z,19.23
2018-08-09T17:22:48.669Z,23.47
2018-08-09T17:25:17.131Z,21.42
2018-08-09T17:27:46.617Z,25.60
2018-08-09T17:30:16.268Z,26.90
2018-08-09T17:32:44.730Z,25.05
2018-08-09T17:35:14.347Z,14.65
2018-08-09T17:37:42.887Z,7.25
2018-08-09T17:40:14.804Z,4.58
2018-08-09T17:42:43.890Z,4.08
2018-08-09T17:45:13.708Z,3.25
2018-08-09T17:47:42.244Z,3.65
2018-08-09T17:50:11.438Z,3.85
2018-08-09T17:52:40.074Z,4.15
2018-08-09T17:55:11.629Z,4.55
2018-08-09T17:57:40.981Z,3.62
2018-08-09T18:00:13.609Z,2.58
2018-08-09T18:02:42.084Z,2.80
2018-08-09T18:05:10.845Z,2.80
2018-08-09T18:07:39.251Z,3.90
2018-08-09T18:10:11.417Z,5.62
2018-08-09T18:12:40.025Z,6.28
2018-08-09T18:15:08.597Z,2.90
2018-08-09T18:17:37.972Z,2.50
2018-08-09T18:20:09.945Z,2.62
2018-08-09T18:22:39.470Z,3.05
2018-08-09T18:25:08.916Z,3.37
2018-08-09T18:27:37.595Z,2.98
2018-08-09T18:30:08.253Z,3.10
2018-08-09T18:32:37.022Z,3.83
2018-08-09T18:35:06.792Z,3.17
2018-08-09T18:37:35.615Z,3.35
2018-08-09T18:40:04.988Z,3.58
2018-08-09T18:42:33.912Z,3.55
2018-08-09T18:45:02.346Z,2.70
2018-08-09T18:47:30.867Z,2.47
2018-08-09T18:49:59.275Z,2.15
2018-08-09T18:52:45.853Z,2.52
2018-08-09T18:55:15.798Z,2.30
2018-08-09T18:57:44.270Z,2.50
2018-08-09T19:00:28.868Z,2.37
2018-08-09T19:02:57.550Z,2.12
2018-08-09T19:05:26.762Z,3.15
2018-08-09T19:07:55.353Z,6.17
2018-08-09T19:10:25.814Z,4.50
2018-08-09T19:12:55.452Z,4.42
2018-08-09T19:15:23.999Z,3.67
2018-08-09T19:17:52.903Z,3.30
2018-08-09T19:20:24.567Z,2.70
2018-08-09T19:22:53.186Z,3.00
2018-08-09T19:25:21.860Z,2.90
2018-08-09T19:27:50.404Z,2.27
2018-08-09T19:30:20.450Z,1.90
2018-08-09T19:32:49.382Z,2.50
2018-08-09T19:35:19.614Z,2.15
2018-08-09T19:37:48.791Z,1.92
2018-08-09T19:40:19.111Z,1.60
2018-08-09T19:42:47.608Z,2.17
2018-08-09T19:45:17.165Z,1.80
2018-08-09T19:47:45.668Z,1.90
2018-08-09T19:50:16.460Z,1.70
2018-08-09T19:52:44.972Z,1.72
2018-08-09T19:55:25.063Z,1.75
2018-08-09T19:57:54.016Z,1.75
2018-08-09T20:00:26.298Z,1.82
2018-08-09T20:02:55.756Z,1.77
2018-08-09T20:05:24.613Z,1.47
2018-08-09T20:07:53.276Z,1.55
2018-08-09T20:10:21.934Z,1.87
2018-08-09T20:12:50.399Z,1.82
2018-08-09T20:15:20.510Z,1.80
2018-08-09T20:17:49.120Z,1.80
2018-08-09T20:20:19.126Z,1.75
2018-08-09T20:22:47.666Z,1.80
2018-08-09T20:25:16.366Z,2.12
2018-08-09T20:27:45.377Z,1.60
2018-08-09T20:30:15.761Z,1.55
2018-08-09T20:32:45.147Z,2.55
2018-08-09T20:35:15.498Z,2.22
2018-08-09T20:37:45.151Z,1.60
2018-08-09T20:40:14.194Z,2.12
2018-08-09T20:42:43.231Z,1.75
2018-08-09T20:45:14.839Z,1.75
2018-08-09T20:47:43.325Z,2.47
2018-08-09T20:50:14.906Z,2.80
2018-08-09T20:52:44.428Z,1.87
2018-08-09T20:55:12.954Z,3.02
2018-08-09T20:57:42.459Z,1.80
2018-08-09T21:00:15.640Z,2.50
2018-08-09T21:02:54.836Z,1.87
2018-08-09T21:05:39.444Z,1.90
2018-08-09T21:08:08.432Z,2.00
2018-08-09T21:10:39.948Z,2.30
2018-08-09T21:13:08.655Z,2.12
2018-08-09T21:15:37.598Z,2.25
2018-08-09T21:18:21.371Z,2.45
2018-08-09T21:21:13.498Z,1.82
2018-08-09T21:23:42.132Z,1.60
2018-08-09T21:26:10.524Z,1.90
2018-08-09T21:28:38.918Z,1.57
2018-08-09T21:31:07.508Z,1.65
2018-08-09T21:33:36.828Z,2.30
2018-08-09T21:36:11.306Z,2.00
2018-08-09T21:38:40.305Z,1.80
2018-08-09T21:41:08.728Z,1.50
2018-08-09T21:43:37.047Z,1.85
2018-08-09T21:46:05.520Z,1.50
2018-08-09T21:48:33.869Z,1.50
2018-08-09T21:51:03.210Z,1.50
2018-08-09T21:53:32.647Z,1.52
2018-08-09T21:56:04.397Z,1.07
2018-08-09T21:58:33.329Z,1.40
2018-08-09T22:01:04.745Z,1.55
2018-08-09T22:03:34.976Z,1.32
2018-08-09T22:06:08.788Z,1.30
2018-08-09T22:08:42.648Z,1.17
2018-08-09T22:11:17.487Z,1.57
2018-08-09T22:13:51.722Z,1.12
2018-08-09T22:16:25.777Z,1.20
2018-08-09T22:19:02.209Z,1.10
2018-08-09T22:21:36.437Z,1.50
2018-08-09T22:24:04.854Z,1.10
2018-08-09T22:26:33.267Z,2.02
2018-08-09T22:29:01.612Z,1.50
2018-08-09T22:31:30.226Z,1.32
2018-08-09T22:33:59.076Z,1.30
2018-08-09T22:36:28.543Z,1.12
2018-08-09T22:38:58.754Z,1.42
2018-08-09T22:41:27.818Z,1.25
2018-08-09T22:43:56.596Z,1.60
2018-08-09T22:46:26.085Z,1.75
2018-08-09T22:48:55.156Z,1.37
2018-08-09T22:51:24.411Z,1.60
2018-08-09T22:53:53.018Z,1.35
2018-08-09T22:56:21.409Z,1.70
2018-08-09T22:58:49.748Z,1.30
2018-08-09T23:01:18.127Z,1.17
2018-08-09T23:03:48.013Z,1.40
2018-08-09T23:06:16.391Z,1.20
2018-08-09T23:08:46.888Z,1.20
2018-08-09T23:11:15.613Z,0.93
2018-08-09T23:13:44.566Z,1.20
2018-08-09T23:16:12.948Z,1.22
2018-08-09T23:18:41.482Z,1.30
2018-08-09T23:21:09.955Z,1.40
2018-08-09T23:23:38.436Z,1.00
2018-08-09T23:26:06.929Z,0.95
2018-08-09T23:28:35.443Z,0.75
2018-08-09T23:31:03.764Z,0.70
2018-08-09T23:33:32.460Z,0.88
2018-08-09T23:36:01.714Z,1.50
2018-08-09T23:38:31.129Z,1.70
2018-08-09T23:40:59.713Z,1.20
2018-08-09T23:43:28.601Z,1.10
2018-08-09T23:45:57.967Z,1.45
2018-08-09T23:48:27.757Z,1.05
2018-08-09T23:50:56.885Z,1.12
2018-08-09T23:53:27.376Z,1.40
2018-08-09T23:55:56.609Z,1.27
2018-08-09T23:58:26.107Z,1.40
